Terminal Aerodrome Forecast
Issued by NWS Cleveland, OH

Home | Current Version | Previous Version | Text Only | Print | Product List | Glossary Off
Versions: 1 2 3 4 5 6 7 8 9 10 11 12 13 14 15 16

000
FTUS41 KCLE 242340
TAFTOL
TAF
KTOL 242340Z 2500/2524 24008KT P6SM SKC
     FM250100 22004KT P6SM SKC
     FM251500 22006KT P6SM SCT050
     FM251900 22008KT P6SM BKN070=

USA.gov is the U.S. government's official web portal to all federal, state and local government web resources and services.